sensor_id;sensor_type;location;lat;lon;timestamp;P1;durP1;ratioP1;P2;durP2;ratioP2
1811;SDS011;904;47.814;11.134;2023-06-19T00:00:32;15.47;;;13.90;;
1811;SDS011;904;47.814;11.134;2023-06-19T00:02:59;13.60;;;12.30;;
1811;SDS011;904;47.814;11.134;2023-06-19T00:05:26;14.77;;;13.20;;
1811;SDS011;904;47.814;11.134;2023-06-19T00:07:54;13.30;;;11.60;;
1811;SDS011;904;47.814;11.134;2023-06-19T00:10:21;13.47;;;12.07;;
1811;SDS011;904;47.814;11.134;2023-06-19T00:12:48;14.10;;;10.87;;
1811;SDS011;904;47.814;11.134;2023-06-19T00:15:15;13.87;;;12.10;;
1811;SDS011;904;47.814;11.134;2023-06-19T00:17:43;14.43;;;13.00;;
1811;SDS011;904;47.814;11.134;2023-06-19T00:20:09;14.13;;;12.47;;
1811;SDS011;904;47.814;11.134;2023-06-19T00:22:38;14.70;;;11.90;;
1811;SDS011;904;47.814;11.134;2023-06-19T00:25:07;14.17;;;12.17;;
1811;SDS011;904;47.814;11.134;2023-06-19T00:27:34;13.97;;;12.57;;
1811;SDS011;904;47.814;11.134;2023-06-19T00:30:01;14.20;;;12.57;;
1811;SDS011;904;47.814;11.134;2023-06-19T00:32:31;15.50;;;13.37;;
1811;SDS011;904;47.814;11.134;2023-06-19T00:35:10;13.07;;;11.67;;
1811;SDS011;904;47.814;11.134;2023-06-19T00:37:37;14.50;;;13.10;;
1811;SDS011;904;47.814;11.134;2023-06-19T00:40:05;14.23;;;12.17;;
1811;SDS011;904;47.814;11.134;2023-06-19T00:42:36;14.07;;;12.63;;
1811;SDS011;904;47.814;11.134;2023-06-19T00:45:04;13.37;;;11.90;;
1811;SDS011;904;47.814;11.134;2023-06-19T00:47:33;13.20;;;12.00;;
1811;SDS011;904;47.814;11.134;2023-06-19T00:50:00;12.40;;;11.20;;
1811;SDS011;904;47.814;11.134;2023-06-19T00:52:27;12.67;;;11.37;;
1811;SDS011;904;47.814;11.134;2023-06-19T00:54:54;13.60;;;11.50;;
1811;SDS011;904;47.814;11.134;2023-06-19T00:57:23;15.17;;;13.50;;
1811;SDS011;904;47.814;11.134;2023-06-19T00:59:50;13.13;;;11.87;;
1811;SDS011;904;47.814;11.134;2023-06-19T01:02:18;13.83;;;12.03;;
1811;SDS011;904;47.814;11.134;2023-06-19T01:04:48;14.93;;;13.07;;
1811;SDS011;904;47.814;11.134;2023-06-19T01:07:17;14.53;;;13.07;;
1811;SDS011;904;47.814;11.134;2023-06-19T01:09:50;14.33;;;12.43;;
1811;SDS011;904;47.814;11.134;2023-06-19T01:12:22;15.77;;;12.57;;
1811;SDS011;904;47.814;11.134;2023-06-19T01:14:56;12.93;;;11.73;;
1811;SDS011;904;47.814;11.134;2023-06-19T01:17:25;17.33;;;13.07;;
1811;SDS011;904;47.814;11.134;2023-06-19T01:19:53;13.03;;;11.83;;
1811;SDS011;904;47.814;11.134;2023-06-19T01:22:28;12.97;;;11.67;;
1811;SDS011;904;47.814;11.134;2023-06-19T01:24:55;12.67;;;11.43;;
1811;SDS011;904;47.814;11.134;2023-06-19T01:27:23;14.03;;;12.63;;
1811;SDS011;904;47.814;11.134;2023-06-19T01:29:54;13.13;;;11.93;;
1811;SDS011;904;47.814;11.134;2023-06-19T01:32:22;14.53;;;13.10;;
1811;SDS011;904;47.814;11.134;2023-06-19T01:34:52;15.30;;;13.63;;
1811;SDS011;904;47.814;11.134;2023-06-19T01:37:20;13.97;;;12.47;;
1811;SDS011;904;47.814;11.134;2023-06-19T01:39:53;14.33;;;12.70;;
1811;SDS011;904;47.814;11.134;2023-06-19T01:42:22;13.10;;;11.80;;
1811;SDS011;904;47.814;11.134;2023-06-19T01:44:49;14.30;;;12.87;;
1811;SDS011;904;47.814;11.134;2023-06-19T01:47:17;14.03;;;12.63;;
1811;SDS011;904;47.814;11.134;2023-06-19T01:49:45;13.93;;;12.63;;
1811;SDS011;904;47.814;11.134;2023-06-19T01:52:12;13.47;;;12.07;;
1811;SDS011;904;47.814;11.134;2023-06-19T01:54:39;13.07;;;11.77;;
1811;SDS011;904;47.814;11.134;2023-06-19T01:57:08;13.90;;;12.50;;
1811;SDS011;904;47.814;11.134;2023-06-19T01:59:35;14.33;;;12.60;;
1811;SDS011;904;47.814;11.134;2023-06-19T02:02:02;13.80;;;12.33;;
1811;SDS011;904;47.814;11.134;2023-06-19T02:04:31;13.67;;;11.77;;
1811;SDS011;904;47.814;11.134;2023-06-19T02:06:58;13.80;;;12.40;;
1811;SDS011;904;47.814;11.134;2023-06-19T02:09:25;14.60;;;12.90;;
1811;SDS011;904;47.814;11.134;2023-06-19T02:11:52;14.60;;;13.10;;
1811;SDS011;904;47.814;11.134;2023-06-19T02:14:21;12.80;;;11.47;;
1811;SDS011;904;47.814;11.134;2023-06-19T02:16:48;14.63;;;13.13;;
1811;SDS011;904;47.814;11.134;2023-06-19T02:19:15;15.60;;;13.97;;
1811;SDS011;904;47.814;11.134;2023-06-19T02:21:42;14.57;;;12.93;;
1811;SDS011;904;47.814;11.134;2023-06-19T02:24:08;14.63;;;12.50;;
1811;SDS011;904;47.814;11.134;2023-06-19T02:26:35;17.00;;;15.17;;
1811;SDS011;904;47.814;11.134;2023-06-19T02:29:02;15.73;;;14.03;;
1811;SDS011;904;47.814;11.134;2023-06-19T02:31:31;17.37;;;14.77;;
1811;SDS011;904;47.814;11.134;2023-06-19T02:33:58;15.13;;;13.20;;
1811;SDS011;904;47.814;11.134;2023-06-19T02:36:25;15.37;;;13.80;;
1811;SDS011;904;47.814;11.134;2023-06-19T02:38:51;13.13;;;11.73;;
1811;SDS011;904;47.814;11.134;2023-06-19T02:41:18;12.93;;;11.60;;
1811;SDS011;904;47.814;11.134;2023-06-19T02:43:46;13.07;;;11.77;;
1811;SDS011;904;47.814;11.134;2023-06-19T02:46:13;19.73;;;12.50;;
1811;SDS011;904;47.814;11.134;2023-06-19T02:48:42;13.40;;;12.10;;
1811;SDS011;904;47.814;11.134;2023-06-19T02:51:09;12.37;;;11.17;;
1811;SDS011;904;47.814;11.134;2023-06-19T02:53:36;14.23;;;12.90;;
1811;SDS011;904;47.814;11.134;2023-06-19T02:56:03;14.63;;;13.20;;
1811;SDS011;904;47.814;11.134;2023-06-19T02:58:30;14.53;;;13.03;;
1811;SDS011;904;47.814;11.134;2023-06-19T03:00:57;13.93;;;12.60;;
1811;SDS011;904;47.814;11.134;2023-06-19T03:03:24;14.97;;;13.50;;
1811;SDS011;904;47.814;11.134;2023-06-19T03:05:52;13.70;;;12.00;;
1811;SDS011;904;47.814;11.134;2023-06-19T03:08:19;14.13;;;12.50;;
1811;SDS011;904;47.814;11.134;2023-06-19T03:10:46;14.77;;;13.30;;
1811;SDS011;904;47.814;11.134;2023-06-19T03:13:13;14.47;;;12.97;;
1811;SDS011;904;47.814;11.134;2023-06-19T03:15:41;13.60;;;12.30;;
1811;SDS011;904;47.814;11.134;2023-06-19T03:18:08;13.10;;;11.73;;
1811;SDS011;904;47.814;11.134;2023-06-19T03:20:35;14.97;;;12.40;;
1811;SDS011;904;47.814;11.134;2023-06-19T03:23:04;13.47;;;12.27;;
1811;SDS011;904;47.814;11.134;2023-06-19T03:25:31;14.50;;;13.00;;
1811;SDS011;904;47.814;11.134;2023-06-19T03:28:00;12.70;;;11.50;;
1811;SDS011;904;47.814;11.134;2023-06-19T03:30:27;14.37;;;11.00;;
1811;SDS011;904;47.814;11.134;2023-06-19T03:32:54;13.43;;;12.03;;
1811;SDS011;904;47.814;11.134;2023-06-19T03:35:21;13.10;;;11.70;;
1811;SDS011;904;47.814;11.134;2023-06-19T03:37:48;11.90;;;10.70;;
1811;SDS011;904;47.814;11.134;2023-06-19T03:40:17;11.20;;;10.20;;
1811;SDS011;904;47.814;11.134;2023-06-19T03:42:44;11.97;;;10.67;;
1811;SDS011;904;47.814;11.134;2023-06-19T03:45:11;13.90;;;12.10;;
1811;SDS011;904;47.814;11.134;2023-06-19T03:47:38;15.30;;;13.80;;
1811;SDS011;904;47.814;11.134;2023-06-19T03:50:05;13.13;;;11.73;;
1811;SDS011;904;47.814;11.134;2023-06-19T03:52:34;13.00;;;11.60;;
1811;SDS011;904;47.814;11.134;2023-06-19T03:55:02;13.87;;;12.47;;
1811;SDS011;904;47.814;11.134;2023-06-19T03:57:30;13.20;;;11.93;;
1811;SDS011;904;47.814;11.134;2023-06-19T03:59:57;16.17;;;14.67;;
1811;SDS011;904;47.814;11.134;2023-06-19T04:02:24;13.47;;;11.83;;
1811;SDS011;904;47.814;11.134;2023-06-19T04:04:52;12.67;;;11.20;;
1811;SDS011;904;47.814;11.134;2023-06-19T04:07:19;13.60;;;12.20;;
1811;SDS011;904;47.814;11.134;2023-06-19T04:09:46;14.30;;;12.90;;
1811;SDS011;904;47.814;11.134;2023-06-19T04:12:13;13.30;;;11.90;;
1811;SDS011;904;47.814;11.134;2023-06-19T04:14:41;14.30;;;12.30;;
1811;SDS011;904;47.814;11.134;2023-06-19T04:17:08;12.90;;;11.70;;
1811;SDS011;904;47.814;11.134;2023-06-19T04:19:35;15.63;;;14.03;;
1811;SDS011;904;47.814;11.134;2023-06-19T04:22:04;14.00;;;12.60;;
1811;SDS011;904;47.814;11.134;2023-06-19T04:24:31;17.43;;;12.03;;
1811;SDS011;904;47.814;11.134;2023-06-19T04:27:01;13.27;;;12.07;;
1811;SDS011;904;47.814;11.134;2023-06-19T04:29:28;15.37;;;13.47;;
1811;SDS011;904;47.814;11.134;2023-06-19T04:31:58;14.80;;;13.10;;
1811;SDS011;904;47.814;11.134;2023-06-19T04:34:25;15.27;;;11.77;;
1811;SDS011;904;47.814;11.134;2023-06-19T04:36:54;14.27;;;12.77;;
1811;SDS011;904;47.814;11.134;2023-06-19T04:39:23;11.87;;;10.67;;
1811;SDS011;904;47.814;11.134;2023-06-19T04:41:50;11.73;;;10.53;;
1811;SDS011;904;47.814;11.134;2023-06-19T04:44:17;12.60;;;11.30;;
1811;SDS011;904;47.814;11.134;2023-06-19T04:46:49;13.30;;;9.90;;
1811;SDS011;904;47.814;11.134;2023-06-19T04:49:17;9.30;;;8.10;;
1811;SDS011;904;47.814;11.134;2023-06-19T04:51:44;12.23;;;10.90;;
1811;SDS011;904;47.814;11.134;2023-06-19T04:54:11;13.40;;;11.00;;
1811;SDS011;904;47.814;11.134;2023-06-19T04:56:38;10.20;;;9.20;;
1811;SDS011;904;47.814;11.134;2023-06-19T04:59:05;9.33;;;8.43;;
1811;SDS011;904;47.814;11.134;2023-06-19T05:01:32;9.57;;;8.57;;
1811;SDS011;904;47.814;11.134;2023-06-19T05:04:00;9.27;;;8.20;;
1811;SDS011;904;47.814;11.134;2023-06-19T05:06:38;11.00;;;9.23;;
1811;SDS011;904;47.814;11.134;2023-06-19T05:09:07;9.50;;;8.30;;
1811;SDS011;904;47.814;11.134;2023-06-19T05:11:34;10.90;;;9.10;;
1811;SDS011;904;47.814;11.134;2023-06-19T05:14:01;9.60;;;8.17;;
1811;SDS011;904;47.814;11.134;2023-06-19T05:16:28;10.57;;;8.30;;
1811;SDS011;904;47.814;11.134;2023-06-19T05:18:56;9.20;;;8.30;;
1811;SDS011;904;47.814;11.134;2023-06-19T05:21:23;9.30;;;8.30;;
1811;SDS011;904;47.814;11.134;2023-06-19T05:23:58;12.13;;;8.57;;
1811;SDS011;904;47.814;11.134;2023-06-19T05:29:09;9.30;;;7.17;;
1811;SDS011;904;47.814;11.134;2023-06-19T05:31:36;9.70;;;8.70;;
1811;SDS011;904;47.814;11.134;2023-06-19T05:34:08;8.80;;;7.90;;
1811;SDS011;904;47.814;11.134;2023-06-19T05:36:41;14.23;;;8.50;;
1811;SDS011;904;47.814;11.134;2023-06-19T05:39:11;9.20;;;8.30;;
1811;SDS011;904;47.814;11.134;2023-06-19T05:41:43;9.60;;;7.33;;
1811;SDS011;904;47.814;11.134;2023-06-19T05:44:10;9.40;;;8.40;;
1811;SDS011;904;47.814;11.134;2023-06-19T05:46:41;7.77;;;7.07;;
1811;SDS011;904;47.814;11.134;2023-06-19T05:49:08;10.20;;;8.60;;
1811;SDS011;904;47.814;11.134;2023-06-19T05:51:40;11.93;;;7.63;;
1811;SDS011;904;47.814;11.134;2023-06-19T05:54:07;10.40;;;7.03;;
1811;SDS011;904;47.814;11.134;2023-06-19T05:56:36;7.53;;;6.73;;
1811;SDS011;904;47.814;11.134;2023-06-19T05:59:03;13.13;;;6.77;;
1811;SDS011;904;47.814;11.134;2023-06-19T06:01:30;9.90;;;8.50;;
1811;SDS011;904;47.814;11.134;2023-06-19T06:03:57;16.90;;;7.47;;
1811;SDS011;904;47.814;11.134;2023-06-19T06:06:24;11.50;;;7.30;;
1811;SDS011;904;47.814;11.134;2023-06-19T06:08:55;9.27;;;7.67;;
1811;SDS011;904;47.814;11.134;2023-06-19T06:11:22;7.40;;;6.53;;
1811;SDS011;904;47.814;11.134;2023-06-19T06:13:53;12.03;;;7.07;;
1811;SDS011;904;47.814;11.134;2023-06-19T06:16:25;8.37;;;7.60;;
1811;SDS011;904;47.814;11.134;2023-06-19T06:18:52;8.93;;;8.03;;
1811;SDS011;904;47.814;11.134;2023-06-19T06:21:19;7.60;;;6.40;;
1811;SDS011;904;47.814;11.134;2023-06-19T06:23:46;8.70;;;7.57;;
1811;SDS011;904;47.814;11.134;2023-06-19T06:26:13;10.70;;;7.20;;
1811;SDS011;904;47.814;11.134;2023-06-19T06:28:40;8.70;;;6.53;;
1811;SDS011;904;47.814;11.134;2023-06-19T06:31:09;10.33;;;6.73;;
1811;SDS011;904;47.814;11.134;2023-06-19T06:33:36;9.30;;;8.00;;
1811;SDS011;904;47.814;11.134;2023-06-19T06:36:02;10.37;;;7.67;;
1811;SDS011;904;47.814;11.134;2023-06-19T06:38:30;9.77;;;8.73;;
1811;SDS011;904;47.814;11.134;2023-06-19T06:40:57;11.90;;;8.23;;
1811;SDS011;904;47.814;11.134;2023-06-19T06:43:24;7.63;;;6.83;;
1811;SDS011;904;47.814;11.134;2023-06-19T06:45:51;8.93;;;8.03;;
1811;SDS011;904;47.814;11.134;2023-06-19T06:48:20;13.80;;;7.70;;
1811;SDS011;904;47.814;11.134;2023-06-19T06:50:47;7.43;;;6.67;;
1811;SDS011;904;47.814;11.134;2023-06-19T06:53:14;10.50;;;9.43;;
1811;SDS011;904;47.814;11.134;2023-06-19T06:55:41;10.13;;;7.87;;
1811;SDS011;904;47.814;11.134;2023-06-19T06:58:08;8.27;;;7.40;;
1811;SDS011;904;47.814;11.134;2023-06-19T07:00:34;8.23;;;6.60;;
1811;SDS011;904;47.814;11.134;2023-06-19T07:03:01;7.47;;;6.20;;
1811;SDS011;904;47.814;11.134;2023-06-19T07:05:30;8.43;;;7.50;;
1811;SDS011;904;47.814;11.134;2023-06-19T07:07:57;9.10;;;6.03;;
1811;SDS011;904;47.814;11.134;2023-06-19T07:10:24;7.20;;;6.23;;
1811;SDS011;904;47.814;11.134;2023-06-19T07:12:51;8.13;;;7.33;;
1811;SDS011;904;47.814;11.134;2023-06-19T07:15:18;7.40;;;6.10;;
1811;SDS011;904;47.814;11.134;2023-06-19T07:17:45;7.83;;;6.63;;
1811;SDS011;904;47.814;11.134;2023-06-19T07:20:13;7.87;;;6.83;;
1811;SDS011;904;47.814;11.134;2023-06-19T07:22:41;9.37;;;8.47;;
1811;SDS011;904;47.814;11.134;2023-06-19T07:25:09;8.13;;;7.30;;
1811;SDS011;904;47.814;11.134;2023-06-19T07:27:37;10.23;;;6.50;;
1811;SDS011;904;47.814;11.134;2023-06-19T07:30:06;7.83;;;6.57;;
1811;SDS011;904;47.814;11.134;2023-06-19T07:32:37;6.57;;;5.90;;
1811;SDS011;904;47.814;11.134;2023-06-19T07:35:04;8.63;;;6.10;;
1811;SDS011;904;47.814;11.134;2023-06-19T07:37:32;8.40;;;6.73;;
1811;SDS011;904;47.814;11.134;2023-06-19T07:40:00;11.30;;;6.40;;
1811;SDS011;904;47.814;11.134;2023-06-19T07:42:27;8.27;;;6.77;;
1811;SDS011;904;47.814;11.134;2023-06-19T07:44:54;6.57;;;5.97;;
1811;SDS011;904;47.814;11.134;2023-06-19T07:47:21;8.50;;;6.67;;
1811;SDS011;904;47.814;11.134;2023-06-19T07:49:48;8.20;;;5.90;;
1811;SDS011;904;47.814;11.134;2023-06-19T07:52:15;9.60;;;5.83;;
1811;SDS011;904;47.814;11.134;2023-06-19T07:54:50;9.00;;;4.30;;
1811;SDS011;904;47.814;11.134;2023-06-19T07:57:19;7.57;;;5.33;;
1811;SDS011;904;47.814;11.134;2023-06-19T07:59:46;5.77;;;5.27;;
1811;SDS011;904;47.814;11.134;2023-06-19T08:02:13;8.37;;;6.27;;
1811;SDS011;904;47.814;11.134;2023-06-19T08:04:40;7.10;;;4.90;;
1811;SDS011;904;47.814;11.134;2023-06-19T08:07:07;9.10;;;6.10;;
1811;SDS011;904;47.814;11.134;2023-06-19T08:09:34;7.90;;;6.00;;
1811;SDS011;904;47.814;11.134;2023-06-19T08:12:01;6.90;;;5.40;;
1811;SDS011;904;47.814;11.134;2023-06-19T08:14:30;7.70;;;5.40;;
1811;SDS011;904;47.814;11.134;2023-06-19T08:16:57;5.90;;;5.20;;
1811;SDS011;904;47.814;11.134;2023-06-19T08:19:24;6.17;;;5.57;;
1811;SDS011;904;47.814;11.134;2023-06-19T08:21:51;6.10;;;5.03;;
1811;SDS011;904;47.814;11.134;2023-06-19T08:24:18;5.80;;;4.43;;
1811;SDS011;904;47.814;11.134;2023-06-19T08:26:45;5.73;;;4.93;;
1811;SDS011;904;47.814;11.134;2023-06-19T08:29:15;6.20;;;4.57;;
1811;SDS011;904;47.814;11.134;2023-06-19T08:31:44;8.57;;;5.10;;
1811;SDS011;904;47.814;11.134;2023-06-19T08:34:11;8.07;;;4.63;;
1811;SDS011;904;47.814;11.134;2023-06-19T08:36:38;4.57;;;3.80;;
1811;SDS011;904;47.814;11.134;2023-06-19T08:39:05;4.77;;;4.27;;
1811;SDS011;904;47.814;11.134;2023-06-19T08:41:33;5.47;;;4.40;;
1811;SDS011;904;47.814;11.134;2023-06-19T08:44:01;5.67;;;4.47;;
1811;SDS011;904;47.814;11.134;2023-06-19T08:46:29;5.50;;;4.70;;
1811;SDS011;904;47.814;11.134;2023-06-19T08:48:57;4.47;;;3.97;;
1811;SDS011;904;47.814;11.134;2023-06-19T08:51:26;5.63;;;4.17;;
1811;SDS011;904;47.814;11.134;2023-06-19T08:53:54;5.70;;;4.70;;
1811;SDS011;904;47.814;11.134;2023-06-19T08:56:22;5.47;;;4.27;;
1811;SDS011;904;47.814;11.134;2023-06-19T08:58:49;5.10;;;4.60;;
1811;SDS011;904;47.814;11.134;2023-06-19T09:01:16;5.47;;;4.90;;
1811;SDS011;904;47.814;11.134;2023-06-19T09:03:45;6.37;;;4.70;;
1811;SDS011;904;47.814;11.134;2023-06-19T09:06:15;8.53;;;5.03;;
1811;SDS011;904;47.814;11.134;2023-06-19T09:08:42;5.70;;;5.10;;
1811;SDS011;904;47.814;11.134;2023-06-19T09:11:11;4.57;;;4.17;;
1811;SDS011;904;47.814;11.134;2023-06-19T09:13:38;8.13;;;5.60;;
1811;SDS011;904;47.814;11.134;2023-06-19T09:16:07;5.03;;;4.50;;
1811;SDS011;904;47.814;11.134;2023-06-19T09:18:42;5.63;;;5.03;;
1811;SDS011;904;47.814;11.134;2023-06-19T09:21:16;5.63;;;5.03;;
1811;SDS011;904;47.814;11.134;2023-06-19T09:23:44;5.97;;;5.13;;
1811;SDS011;904;47.814;11.134;2023-06-19T09:26:13;6.43;;;4.83;;
1811;SDS011;904;47.814;11.134;2023-06-19T09:28:41;5.87;;;5.30;;
1811;SDS011;904;47.814;11.134;2023-06-19T09:31:08;5.20;;;4.70;;
1811;SDS011;904;47.814;11.134;2023-06-19T09:33:35;5.33;;;4.57;;
1811;SDS011;904;47.814;11.134;2023-06-19T09:36:04;8.30;;;5.43;;
1811;SDS011;904;47.814;11.134;2023-06-19T09:38:34;7.43;;;5.20;;
1811;SDS011;904;47.814;11.134;2023-06-19T09:41:03;6.10;;;5.50;;
1811;SDS011;904;47.814;11.134;2023-06-19T09:43:33;6.20;;;4.93;;
1811;SDS011;904;47.814;11.134;2023-06-19T09:46:02;7.80;;;4.70;;
1811;SDS011;904;47.814;11.134;2023-06-19T09:48:30;5.23;;;4.73;;
1811;SDS011;904;47.814;11.134;2023-06-19T09:51:01;6.80;;;5.13;;
1811;SDS011;904;47.814;11.134;2023-06-19T09:53:36;5.77;;;4.80;;
1811;SDS011;904;47.814;11.134;2023-06-19T09:56:04;6.33;;;4.60;;
1811;SDS011;904;47.814;11.134;2023-06-19T09:58:30;5.00;;;4.50;;
1811;SDS011;904;47.814;11.134;2023-06-19T10:00:58;6.23;;;5.60;;
1811;SDS011;904;47.814;11.134;2023-06-19T10:03:29;6.83;;;5.93;;
1811;SDS011;904;47.814;11.134;2023-06-19T10:05:58;5.27;;;4.73;;
1811;SDS011;904;47.814;11.134;2023-06-19T10:08:27;5.03;;;4.53;;
1811;SDS011;904;47.814;11.134;2023-06-19T10:10:56;6.13;;;5.53;;
1811;SDS011;904;47.814;11.134;2023-06-19T10:13:30;6.00;;;5.30;;
1811;SDS011;904;47.814;11.134;2023-06-19T10:15:58;8.00;;;5.77;;
1811;SDS011;904;47.814;11.134;2023-06-19T10:18:26;6.90;;;5.10;;
1811;SDS011;904;47.814;11.134;2023-06-19T10:20:53;5.70;;;5.20;;
1811;SDS011;904;47.814;11.134;2023-06-19T10:23:22;6.37;;;5.77;;
1811;SDS011;904;47.814;11.134;2023-06-19T10:25:55;6.17;;;5.50;;
1811;SDS011;904;47.814;11.134;2023-06-19T10:28:25;6.27;;;5.67;;
1811;SDS011;904;47.814;11.134;2023-06-19T10:30:54;5.70;;;5.07;;
1811;SDS011;904;47.814;11.134;2023-06-19T10:33:21;6.20;;;5.60;;
1811;SDS011;904;47.814;11.134;2023-06-19T10:35:49;6.10;;;5.37;;
1811;SDS011;904;47.814;11.134;2023-06-19T10:38:16;6.77;;;6.07;;
1811;SDS011;904;47.814;11.134;2023-06-19T10:40:44;5.97;;;5.37;;
1811;SDS011;904;47.814;11.134;2023-06-19T10:43:13;6.10;;;5.50;;
1811;SDS011;904;47.814;11.134;2023-06-19T10:45:46;5.53;;;5.00;;
1811;SDS011;904;47.814;11.134;2023-06-19T10:48:18;6.00;;;5.20;;
1811;SDS011;904;47.814;11.134;2023-06-19T10:50:46;5.90;;;4.77;;
1811;SDS011;904;47.814;11.134;2023-06-19T10:53:22;5.40;;;4.83;;
1811;SDS011;904;47.814;11.134;2023-06-19T10:55:54;5.50;;;4.90;;
1811;SDS011;904;47.814;11.134;2023-06-19T10:58:23;5.50;;;5.00;;
1811;SDS011;904;47.814;11.134;2023-06-19T11:00:50;7.17;;;5.77;;
1811;SDS011;904;47.814;11.134;2023-06-19T11:03:18;5.77;;;5.10;;
1811;SDS011;904;47.814;11.134;2023-06-19T11:05:46;7.00;;;5.13;;
1811;SDS011;904;47.814;11.134;2023-06-19T11:08:16;5.43;;;4.87;;
1811;SDS011;904;47.814;11.134;2023-06-19T11:10:44;6.77;;;6.17;;
1811;SDS011;904;47.814;11.134;2023-06-19T11:13:13;5.53;;;5.03;;
1811;SDS011;904;47.814;11.134;2023-06-19T11:15:42;6.20;;;5.60;;
1811;SDS011;904;47.814;11.134;2023-06-19T11:18:09;6.07;;;5.37;;
1811;SDS011;904;47.814;11.134;2023-06-19T11:20:43;6.10;;;5.60;;
1811;SDS011;904;47.814;11.134;2023-06-19T11:23:12;5.00;;;4.50;;
1811;SDS011;904;47.814;11.134;2023-06-19T11:25:39;5.97;;;5.37;;
1811;SDS011;904;47.814;11.134;2023-06-19T11:28:10;6.13;;;5.53;;
1811;SDS011;904;47.814;11.134;2023-06-19T11:30:38;6.20;;;5.20;;
1811;SDS011;904;47.814;11.134;2023-06-19T11:33:19;6.00;;;5.10;;
1811;SDS011;904;47.814;11.134;2023-06-19T11:35:47;6.43;;;5.23;;
1811;SDS011;904;47.814;11.134;2023-06-19T11:38:16;8.17;;;7.33;;
1811;SDS011;904;47.814;11.134;2023-06-19T11:40:44;5.50;;;5.00;;
1811;SDS011;904;47.814;11.134;2023-06-19T11:43:12;5.33;;;4.83;;
1811;SDS011;904;47.814;11.134;2023-06-19T11:45:49;5.63;;;5.03;;
1811;SDS011;904;47.814;11.134;2023-06-19T11:48:22;9.27;;;7.83;;
1811;SDS011;904;47.814;11.134;2023-06-19T11:50:50;6.27;;;5.47;;
1811;SDS011;904;47.814;11.134;2023-06-19T11:53:18;5.40;;;4.63;;
1811;SDS011;904;47.814;11.134;2023-06-19T11:55:45;10.30;;;4.30;;
1811;SDS011;904;47.814;11.134;2023-06-19T11:58:12;7.47;;;5.10;;
1811;SDS011;904;47.814;11.134;2023-06-19T12:00:40;4.73;;;4.33;;
1811;SDS011;904;47.814;11.134;2023-06-19T12:03:08;5.37;;;4.63;;
1811;SDS011;904;47.814;11.134;2023-06-19T12:05:36;8.20;;;5.20;;
1811;SDS011;904;47.814;11.134;2023-06-19T12:08:06;5.70;;;4.80;;
1811;SDS011;904;47.814;11.134;2023-06-19T12:10:33;5.33;;;4.40;;
1811;SDS011;904;47.814;11.134;2023-06-19T12:13:01;5.80;;;4.83;;
1811;SDS011;904;47.814;11.134;2023-06-19T12:15:28;8.50;;;5.13;;
1811;SDS011;904;47.814;11.134;2023-06-19T12:17:55;5.90;;;4.70;;
1811;SDS011;904;47.814;11.134;2023-06-19T12:20:23;4.53;;;3.97;;
1811;SDS011;904;47.814;11.134;2023-06-19T12:22:51;4.97;;;4.47;;
1811;SDS011;904;47.814;11.134;2023-06-19T12:25:18;4.90;;;4.40;;
1811;SDS011;904;47.814;11.134;2023-06-19T12:27:45;8.57;;;4.20;;
1811;SDS011;904;47.814;11.134;2023-06-19T12:30:15;7.27;;;4.57;;
1811;SDS011;904;47.814;11.134;2023-06-19T12:32:42;4.93;;;4.20;;
1811;SDS011;904;47.814;11.134;2023-06-19T12:35:08;5.60;;;4.30;;
1811;SDS011;904;47.814;11.134;2023-06-19T12:37:35;5.43;;;4.83;;
1811;SDS011;904;47.814;11.134;2023-06-19T12:40:04;5.50;;;4.87;;
1811;SDS011;904;47.814;11.134;2023-06-19T12:42:35;4.90;;;4.40;;
1811;SDS011;904;47.814;11.134;2023-06-19T12:45:03;5.17;;;4.10;;
1811;SDS011;904;47.814;11.134;2023-06-19T12:47:30;5.33;;;4.80;;
1811;SDS011;904;47.814;11.134;2023-06-19T12:49:58;7.40;;;5.20;;
1811;SDS011;904;47.814;11.134;2023-06-19T12:52:25;5.07;;;4.17;;
1811;SDS011;904;47.814;11.134;2023-06-19T12:54:52;7.10;;;4.80;;
1811;SDS011;904;47.814;11.134;2023-06-19T12:57:20;4.37;;;3.97;;
1811;SDS011;904;47.814;11.134;2023-06-19T12:59:47;4.50;;;3.93;;
1811;SDS011;904;47.814;11.134;2023-06-19T13:02:14;6.40;;;4.90;;
1811;SDS011;904;47.814;11.134;2023-06-19T13:04:41;6.93;;;4.50;;
1811;SDS011;904;47.814;11.134;2023-06-19T13:07:07;7.00;;;4.80;;
1811;SDS011;904;47.814;11.134;2023-06-19T13:09:34;6.30;;;4.67;;
1811;SDS011;904;47.814;11.134;2023-06-19T13:12:03;6.63;;;5.40;;
1811;SDS011;904;47.814;11.134;2023-06-19T13:14:32;5.10;;;4.20;;
1811;SDS011;904;47.814;11.134;2023-06-19T13:16:59;5.23;;;4.73;;
1811;SDS011;904;47.814;11.134;2023-06-19T13:19:26;6.10;;;5.00;;
1811;SDS011;904;47.814;11.134;2023-06-19T13:21:53;7.33;;;4.53;;
1811;SDS011;904;47.814;11.134;2023-06-19T13:24:20;6.53;;;5.23;;
1811;SDS011;904;47.814;11.134;2023-06-19T13:26:47;5.67;;;4.77;;
1811;SDS011;904;47.814;11.134;2023-06-19T13:29:14;6.03;;;4.63;;
1811;SDS011;904;47.814;11.134;2023-06-19T13:31:43;6.30;;;4.80;;
1811;SDS011;904;47.814;11.134;2023-06-19T13:34:09;6.80;;;5.07;;
1811;SDS011;904;47.814;11.134;2023-06-19T13:36:36;4.90;;;4.40;;
1811;SDS011;904;47.814;11.134;2023-06-19T13:39:03;5.60;;;5.00;;
1811;SDS011;904;47.814;11.134;2023-06-19T13:41:30;7.87;;;4.67;;
1811;SDS011;904;47.814;11.134;2023-06-19T13:43:59;6.63;;;5.27;;
1811;SDS011;904;47.814;11.134;2023-06-19T13:46:26;5.60;;;5.10;;
1811;SDS011;904;47.814;11.134;2023-06-19T13:48:55;5.90;;;5.20;;
1811;SDS011;904;47.814;11.134;2023-06-19T13:51:22;5.53;;;4.50;;
1811;SDS011;904;47.814;11.134;2023-06-19T13:53:50;6.63;;;4.73;;
1811;SDS011;904;47.814;11.134;2023-06-19T13:56:17;7.10;;;5.10;;
1811;SDS011;904;47.814;11.134;2023-06-19T13:58:44;4.90;;;4.30;;
1811;SDS011;904;47.814;11.134;2023-06-19T14:01:11;6.97;;;4.80;;
1811;SDS011;904;47.814;11.134;2023-06-19T14:03:38;8.50;;;5.00;;
1811;SDS011;904;47.814;11.134;2023-06-19T14:06:07;5.97;;;4.10;;
1811;SDS011;904;47.814;11.134;2023-06-19T14:08:34;5.87;;;4.70;;
1811;SDS011;904;47.814;11.134;2023-06-19T14:11:01;5.63;;;4.70;;
1811;SDS011;904;47.814;11.134;2023-06-19T14:13:28;4.93;;;4.30;;
1811;SDS011;904;47.814;11.134;2023-06-19T14:15:55;5.83;;;4.87;;
1811;SDS011;904;47.814;11.134;2023-06-19T14:18:22;5.43;;;4.50;;
1811;SDS011;904;47.814;11.134;2023-06-19T14:20:49;5.83;;;4.60;;
1811;SDS011;904;47.814;11.134;2023-06-19T14:23:17;6.90;;;5.10;;
1811;SDS011;904;47.814;11.134;2023-06-19T14:25:44;5.50;;;5.00;;
1811;SDS011;904;47.814;11.134;2023-06-19T14:28:11;4.80;;;4.33;;
1811;SDS011;904;47.814;11.134;2023-06-19T14:30:39;5.93;;;5.33;;
1811;SDS011;904;47.814;11.134;2023-06-19T14:33:06;6.10;;;5.30;;
1811;SDS011;904;47.814;11.134;2023-06-19T14:35:39;7.57;;;5.10;;
1811;SDS011;904;47.814;11.134;2023-06-19T14:38:10;6.73;;;5.10;;
1811;SDS011;904;47.814;11.134;2023-06-19T14:40:40;5.97;;;5.00;;
1811;SDS011;904;47.814;11.134;2023-06-19T14:43:07;5.60;;;5.00;;
1811;SDS011;904;47.814;11.134;2023-06-19T14:45:35;5.10;;;4.57;;
1811;SDS011;904;47.814;11.134;2023-06-19T14:48:03;5.40;;;4.10;;
1811;SDS011;904;47.814;11.134;2023-06-19T14:50:31;6.33;;;5.23;;
1811;SDS011;904;47.814;11.134;2023-06-19T14:52:58;6.00;;;4.20;;
1811;SDS011;904;47.814;11.134;2023-06-19T14:55:25;7.07;;;5.13;;
1811;SDS011;904;47.814;11.134;2023-06-19T14:57:54;5.13;;;4.63;;
1811;SDS011;904;47.814;11.134;2023-06-19T15:00:20;6.00;;;4.80;;
1811;SDS011;904;47.814;11.134;2023-06-19T15:02:48;8.10;;;5.50;;
1811;SDS011;904;47.814;11.134;2023-06-19T15:05:15;5.30;;;4.80;;
1811;SDS011;904;47.814;11.134;2023-06-19T15:07:42;5.03;;;4.53;;
1811;SDS011;904;47.814;11.134;2023-06-19T15:10:09;8.53;;;5.23;;
1811;SDS011;904;47.814;11.134;2023-06-19T15:12:37;7.20;;;5.67;;